createdAt,value
2022-12-18T00:01:28.640Z,14.25
2022-12-18T00:03:57.404Z,13.85
2022-12-18T00:06:26.615Z,13.10
2022-12-18T00:08:56.629Z,14.23
2022-12-18T00:11:27.148Z,14.40
2022-12-18T00:13:56.445Z,14.65
2022-12-18T00:16:25.591Z,15.30
2022-12-18T00:19:00.532Z,15.27
2022-12-18T00:21:30.039Z,14.80
2022-12-18T00:23:57.987Z,14.50
2022-12-18T00:26:27.836Z,13.93
2022-12-18T00:29:04.047Z,13.98
2022-12-18T00:31:33.253Z,13.07
2022-12-18T00:34:02.478Z,13.27
2022-12-18T00:36:32.784Z,12.93
2022-12-18T00:39:02.250Z,13.15
2022-12-18T00:41:48.671Z,13.80
2022-12-18T00:44:18.363Z,13.00
2022-12-18T00:46:47.865Z,13.52
2022-12-18T00:49:16.698Z,13.18
2022-12-18T00:51:44.179Z,13.00
2022-12-18T00:54:12.459Z,12.82
2022-12-18T00:56:48.209Z,12.30
2022-12-18T00:59:16.983Z,13.38
2022-12-18T01:01:44.898Z,12.48
2022-12-18T01:04:12.629Z,12.95
2022-12-18T01:06:40.159Z,11.95
2022-12-18T01:09:07.754Z,11.77
2022-12-18T01:11:37.705Z,12.18
2022-12-18T01:14:06.114Z,11.77
2022-12-18T01:16:33.544Z,13.00
2022-12-18T01:19:01.195Z,12.57
2022-12-18T01:21:29.030Z,12.25
2022-12-18T01:23:57.710Z,12.68
2022-12-18T01:26:26.179Z,12.57
2022-12-18T01:28:56.006Z,12.43
2022-12-18T01:31:30.634Z,12.05
2022-12-18T01:33:58.339Z,12.32
2022-12-18T01:36:31.238Z,12.25
2022-12-18T01:39:01.363Z,12.05
2022-12-18T01:41:51.155Z,13.52
2022-12-18T01:44:56.573Z,12.50
2022-12-18T01:47:44.631Z,12.52
2022-12-18T01:50:19.050Z,12.13
2022-12-18T01:52:49.993Z,13.00
2022-12-18T01:55:20.488Z,12.60
2022-12-18T01:57:48.844Z,12.38
2022-12-18T02:00:20.665Z,11.95
2022-12-18T02:02:48.777Z,12.30
2022-12-18T02:05:29.739Z,13.07
2022-12-18T02:08:06.905Z,12.10
2022-12-18T02:10:43.803Z,12.20
2022-12-18T02:13:29.613Z,12.80
2022-12-18T02:16:24.409Z,13.30
2022-12-18T02:19:00.690Z,12.52
2022-12-18T02:21:51.206Z,11.55
2022-12-18T02:24:29.083Z,11.18
2022-12-18T02:27:03.807Z,13.50
2022-12-18T02:29:46.217Z,12.93
2022-12-18T02:32:19.408Z,12.93
2022-12-18T02:34:48.585Z,12.13
2022-12-18T02:37:19.710Z,13.52
2022-12-18T02:39:50.736Z,12.25
2022-12-18T02:42:19.674Z,13.20
2022-12-18T02:44:51.707Z,12.90
2022-12-18T02:47:30.401Z,13.52
2022-12-18T02:50:16.010Z,11.27
2022-12-18T02:52:51.555Z,12.32
2022-12-18T02:55:46.738Z,11.60
2022-12-18T02:58:47.033Z,11.65
2022-12-18T03:01:43.487Z,12.18
2022-12-18T03:04:22.467Z,11.38
2022-12-18T03:06:52.693Z,12.32
2022-12-18T03:09:31.407Z,12.30
2022-12-18T03:12:26.013Z,12.40
2022-12-18T03:15:04.844Z,12.27
2022-12-18T03:17:34.878Z,12.02
2022-12-18T03:20:16.076Z,12.63
2022-12-18T03:22:46.426Z,12.70
2022-12-18T03:25:19.292Z,13.88
2022-12-18T03:27:54.923Z,12.57
2022-12-18T03:30:22.692Z,12.93
2022-12-18T03:33:14.430Z,13.05
2022-12-18T03:35:46.411Z,13.57
2022-12-18T03:38:14.409Z,12.95
2022-12-18T03:41:28.158Z,13.20
2022-12-18T03:44:26.550Z,13.38
2022-12-18T03:47:08.954Z,12.98
2022-12-18T03:49:48.221Z,12.35
2022-12-18T03:52:39.468Z,13.23
2022-12-18T03:55:10.293Z,12.55
2022-12-18T03:57:40.365Z,13.40
2022-12-18T04:00:12.620Z,13.25
2022-12-18T04:02:56.599Z,12.88
2022-12-18T04:05:34.199Z,12.35
2022-12-18T04:08:02.902Z,13.27
2022-12-18T04:10:33.332Z,12.75
2022-12-18T04:13:02.022Z,12.23
2022-12-18T04:15:30.244Z,13.38
2022-12-18T04:17:59.530Z,12.20
2022-12-18T04:20:33.688Z,13.07
2022-12-18T04:23:01.204Z,13.27
2022-12-18T04:25:28.878Z,13.40
2022-12-18T04:28:08.403Z,12.82
2022-12-18T04:30:37.149Z,12.95
2022-12-18T04:33:04.841Z,13.15
2022-12-18T04:35:32.888Z,12.10
2022-12-18T04:38:00.482Z,13.00
2022-12-18T04:40:28.282Z,12.77
2022-12-18T04:42:55.990Z,12.82
2022-12-18T04:45:23.403Z,12.13
2022-12-18T04:47:50.859Z,11.52
2022-12-18T04:50:18.390Z,12.05
2022-12-18T04:52:46.429Z,12.50
2022-12-18T04:55:14.303Z,12.32
2022-12-18T04:57:41.588Z,11.52
2022-12-18T05:00:09.632Z,11.98
2022-12-18T05:02:37.028Z,12.35
2022-12-18T05:05:04.761Z,10.90
2022-12-18T05:07:32.122Z,11.43
2022-12-18T05:09:59.495Z,12.85
2022-12-18T05:12:27.027Z,12.77
2022-12-18T05:14:54.337Z,11.60
2022-12-18T05:17:21.682Z,11.48
2022-12-18T05:19:48.966Z,11.82
2022-12-18T05:22:17.034Z,11.50
2022-12-18T05:24:44.303Z,12.10
2022-12-18T05:27:11.610Z,11.75
2022-12-18T05:29:39.140Z,11.52
2022-12-18T05:32:06.439Z,12.18
2022-12-18T05:34:34.467Z,10.63
2022-12-18T05:37:01.871Z,12.45
2022-12-18T05:39:29.365Z,11.00
2022-12-18T05:41:56.964Z,10.60
2022-12-18T05:44:24.404Z,10.50
2022-12-18T05:46:51.796Z,11.75
2022-12-18T05:49:19.205Z,11.07
2022-12-18T05:51:46.916Z,11.27
2022-12-18T05:54:14.291Z,11.48
2022-12-18T05:56:47.009Z,11.43
2022-12-18T06:01:44.211Z,11.80
2022-12-18T06:04:11.681Z,11.98
2022-12-18T06:06:39.322Z,11.98
2022-12-18T06:09:09.266Z,10.68
2022-12-18T06:11:37.977Z,10.20
2022-12-18T06:14:07.112Z,11.50
2022-12-18T06:16:35.626Z,10.75
2022-12-18T06:19:05.917Z,11.13
2022-12-18T06:21:34.417Z,11.90
2022-12-18T06:24:02.487Z,10.68
2022-12-18T06:26:29.771Z,10.90
2022-12-18T06:28:57.236Z,11.27
2022-12-18T06:31:25.315Z,12.70
2022-12-18T06:33:52.941Z,13.02
2022-12-18T06:36:21.065Z,11.65
2022-12-18T06:38:48.406Z,12.73
2022-12-18T06:41:18.104Z,11.85
2022-12-18T06:43:45.799Z,11.93
2022-12-18T06:46:13.547Z,11.73
2022-12-18T06:48:41.161Z,12.02
2022-12-18T06:51:08.761Z,11.60
2022-12-18T06:53:36.011Z,11.85
2022-12-18T06:56:09.431Z,11.95
2022-12-18T06:58:38.752Z,11.73
2022-12-18T07:01:07.957Z,11.52
2022-12-18T07:03:35.639Z,11.18
2022-12-18T07:06:03.202Z,12.02
2022-12-18T07:08:32.017Z,12.38
2022-12-18T07:10:59.531Z,12.07
2022-12-18T07:13:27.669Z,12.20
2022-12-18T07:15:55.150Z,12.30
2022-12-18T07:18:22.555Z,12.43
2022-12-18T07:20:49.772Z,12.30
2022-12-18T07:23:17.062Z,11.25
2022-12-18T07:25:44.287Z,12.05
2022-12-18T07:28:17.383Z,12.27
2022-12-18T07:30:44.969Z,11.68
2022-12-18T07:33:12.205Z,12.52
2022-12-18T07:35:39.674Z,11.68
2022-12-18T07:38:07.275Z,11.68
2022-12-18T07:40:34.646Z,12.00
2022-12-18T07:43:01.992Z,11.20
2022-12-18T07:45:32.109Z,12.15
2022-12-18T07:47:59.422Z,10.43
2022-12-18T07:50:26.729Z,10.75
2022-12-18T07:52:54.015Z,11.20
2022-12-18T07:55:21.250Z,10.95
2022-12-18T07:57:51.405Z,10.60
2022-12-18T08:00:20.751Z,11.70
2022-12-18T08:02:48.895Z,11.43
2022-12-18T08:05:16.332Z,11.50
2022-12-18T08:07:43.651Z,12.13
2022-12-18T08:10:11.106Z,10.85
2022-12-18T08:12:38.534Z,10.23
2022-12-18T08:15:06.234Z,10.88
2022-12-18T08:17:33.716Z,11.35
2022-12-18T08:20:01.454Z,11.00
2022-12-18T08:22:28.757Z,10.45
2022-12-18T08:24:56.027Z,9.35
2022-12-18T08:27:30.669Z,9.75
2022-12-18T08:29:58.678Z,8.95
2022-12-18T08:32:27.105Z,9.52
2022-12-18T08:34:54.813Z,9.85
2022-12-18T08:37:22.042Z,9.25
2022-12-18T08:39:49.281Z,9.30
2022-12-18T08:42:35.376Z,10.70
2022-12-18T08:45:03.937Z,9.57
2022-12-18T08:47:31.237Z,9.95
2022-12-18T08:49:58.507Z,9.77
2022-12-18T08:52:25.894Z,9.38
2022-12-18T08:54:53.155Z,9.68
2022-12-18T08:57:20.427Z,9.00
2022-12-18T08:59:47.702Z,9.07
2022-12-18T09:02:15.047Z,9.68
2022-12-18T09:04:42.413Z,9.90
2022-12-18T09:07:10.041Z,10.75
2022-12-18T09:09:37.685Z,10.23
2022-12-18T09:12:04.976Z,9.98
2022-12-18T09:14:32.352Z,10.32
2022-12-18T09:16:59.716Z,9.85
2022-12-18T09:19:27.118Z,9.93
2022-12-18T09:21:54.477Z,10.10
2022-12-18T09:24:24.842Z,10.70
2022-12-18T09:26:57.781Z,10.40
2022-12-18T09:29:25.509Z,8.95
2022-12-18T09:31:52.859Z,10.70
2022-12-18T09:34:22.685Z,10.60
2022-12-18T09:36:50.020Z,9.73
2022-12-18T09:39:17.975Z,9.55
2022-12-18T09:41:57.919Z,9.60
2022-12-18T09:44:41.591Z,10.02
2022-12-18T09:47:10.571Z,9.68
2022-12-18T09:49:44.854Z,9.65
2022-12-18T09:52:39.122Z,11.05
2022-12-18T09:55:37.213Z,10.17
2022-12-18T09:58:17.567Z,9.80
2022-12-18T10:00:45.187Z,8.93
2022-12-18T10:03:15.195Z,9.80
2022-12-18T10:05:57.236Z,9.95
2022-12-18T10:08:46.231Z,10.20
2022-12-18T10:11:28.262Z,10.32
2022-12-18T10:14:13.104Z,9.75
2022-12-18T10:16:48.759Z,9.63
2022-12-18T10:19:40.344Z,9.38
2022-12-18T10:22:35.228Z,9.88
2022-12-18T10:25:21.946Z,10.05
2022-12-18T10:27:53.185Z,10.23
2022-12-18T10:30:24.028Z,10.25
2022-12-18T10:32:52.023Z,10.27
2022-12-18T10:35:23.644Z,10.18
2022-12-18T10:38:05.736Z,10.88
2022-12-18T10:40:36.898Z,11.13
2022-12-18T10:43:05.204Z,9.65
2022-12-18T10:45:32.706Z,10.38
2022-12-18T10:47:59.988Z,10.88
2022-12-18T10:51:01.731Z,10.50
2022-12-18T10:53:27.004Z,10.23
2022-12-18T10:56:01.641Z,10.40
2022-12-18T11:01:18.790Z,10.10
2022-12-18T11:04:02.124Z,10.80
2022-12-18T11:06:33.529Z,10.75
2022-12-18T11:09:18.489Z,9.90
2022-12-18T11:11:54.459Z,10.63
2022-12-18T11:14:47.691Z,10.65
2022-12-18T11:17:26.830Z,11.23
2022-12-18T11:20:07.923Z,11.18
2022-12-18T11:22:39.335Z,10.75
2022-12-18T11:28:25.736Z,11.45
2022-12-18T11:31:19.938Z,10.98
2022-12-18T11:34:29.250Z,11.27
2022-12-18T11:37:00.578Z,10.30
2022-12-18T11:39:37.497Z,9.85
2022-12-18T11:42:42.274Z,11.40
2022-12-18T11:45:26.060Z,10.50
2022-12-18T11:48:15.947Z,11.00
2022-12-18T11:50:45.975Z,11.43
2022-12-18T11:53:13.866Z,11.38
2022-12-18T11:56:00.807Z,11.48
2022-12-18T11:59:06.512Z,12.43
2022-12-18T12:01:46.204Z,11.20
2022-12-18T12:04:16.598Z,11.15
2022-12-18T12:07:17.644Z,11.05
2022-12-18T12:10:04.441Z,11.88
2022-12-18T12:12:58.539Z,11.30
2022-12-18T12:15:33.147Z,11.70
2022-12-18T12:21:02.370Z,10.85
2022-12-18T12:24:00.925Z,11.57
2022-12-18T12:26:44.675Z,11.30
2022-12-18T12:29:30.316Z,11.88
2022-12-18T12:32:15.287Z,11.35
2022-12-18T12:34:45.739Z,11.90
2022-12-18T12:37:48.556Z,12.25
2022-12-18T12:43:51.132Z,12.48
2022-12-18T12:46:22.881Z,11.98
2022-12-18T12:49:04.823Z,11.18
2022-12-18T12:51:39.998Z,11.40
2022-12-18T12:54:17.386Z,12.13
2022-12-18T12:57:19.046Z,12.00
2022-12-18T12:59:57.757Z,11.73
2022-12-18T13:02:48.400Z,12.40
2022-12-18T13:05:28.499Z,12.65
2022-12-18T13:08:02.347Z,12.85
2022-12-18T13:10:39.161Z,13.07
2022-12-18T13:13:13.370Z,12.88
2022-12-18T13:16:03.792Z,12.23
2022-12-18T13:18:31.887Z,13.82
2022-12-18T13:21:03.061Z,13.20
2022-12-18T13:23:35.417Z,14.23
2022-12-18T13:26:10.635Z,13.00
2022-12-18T13:28:47.608Z,12.80
2022-12-18T13:31:14.869Z,13.25
2022-12-18T13:34:23.990Z,12.35
2022-12-18T13:36:35.274Z,12.07
2022-12-18T13:39:11.504Z,12.80
2022-12-18T13:41:39.081Z,13.45
2022-12-18T13:44:35.962Z,13.07
2022-12-18T13:47:33.882Z,13.60
2022-12-18T13:50:03.736Z,13.90
2022-12-18T13:52:39.930Z,12.98
2022-12-18T13:55:16.503Z,13.13
2022-12-18T13:57:47.057Z,13.30
2022-12-18T14:00:24.081Z,13.38
2022-12-18T14:02:52.687Z,14.25
2022-12-18T14:05:29.381Z,13.15
2022-12-18T14:08:09.093Z,12.82
2022-12-18T14:10:48.475Z,14.05
2022-12-18T14:13:22.690Z,14.80
2022-12-18T14:15:51.199Z,14.70
2022-12-18T14:18:37.467Z,13.20
2022-12-18T14:21:05.811Z,14.88
2022-12-18T14:23:39.442Z,15.43
2022-12-18T14:26:28.049Z,14.15
2022-12-18T14:29:15.981Z,13.90
2022-12-18T14:31:43.690Z,14.82
2022-12-18T14:34:20.277Z,15.02
2022-12-18T14:36:56.157Z,15.27
2022-12-18T14:39:24.842Z,15.68
2022-12-18T14:41:53.902Z,15.02
2022-12-18T14:44:22.440Z,14.48
2022-12-18T14:46:51.857Z,14.40
2022-12-18T14:49:32.094Z,14.02
2022-12-18T14:52:05.595Z,14.00
2022-12-18T14:54:36.038Z,14.18
2022-12-18T14:57:05.448Z,13.45
2022-12-18T14:59:33.800Z,16.25
2022-12-18T15:02:24.856Z,15.55
2022-12-18T15:05:14.942Z,14.85
2022-12-18T15:07:50.899Z,15.23
2022-12-18T15:10:20.970Z,14.82
2022-12-18T15:12:49.900Z,15.23
2022-12-18T15:15:38.627Z,15.75
2022-12-18T15:18:18.445Z,15.85
2022-12-18T15:21:09.972Z,14.13
2022-12-18T15:23:45.381Z,15.18
2022-12-18T15:26:15.599Z,15.32
2022-12-18T15:28:53.456Z,15.38
2022-12-18T15:31:29.884Z,15.70
2022-12-18T15:33:57.239Z,14.82
2022-12-18T15:36:26.779Z,15.57
2022-12-18T15:38:59.247Z,14.20
2022-12-18T15:41:36.047Z,15.80
2022-12-18T15:44:04.928Z,15.55
2022-12-18T15:46:32.503Z,15.57
2022-12-18T15:49:02.747Z,15.98
2022-12-18T15:51:37.873Z,16.27
2022-12-18T15:54:10.460Z,17.38
2022-12-18T15:57:18.943Z,15.95
2022-12-18T15:59:46.548Z,16.67
2022-12-18T16:02:18.224Z,16.38
2022-12-18T16:04:47.403Z,17.38
2022-12-18T16:07:17.555Z,17.58
2022-12-18T16:09:52.684Z,17.42
2022-12-18T16:12:25.242Z,16.75
2022-12-18T16:14:55.431Z,16.85
2022-12-18T16:17:23.115Z,16.95
2022-12-18T16:19:50.652Z,18.08
2022-12-18T16:22:23.296Z,17.27
2022-12-18T16:24:52.433Z,18.50
2022-12-18T16:27:25.374Z,15.93
2022-12-18T16:29:55.596Z,18.00
2022-12-18T16:32:23.700Z,20.13
2022-12-18T16:34:55.180Z,19.02
2022-12-18T16:37:22.956Z,16.52
2022-12-18T16:39:50.567Z,17.65
2022-12-18T16:42:21.015Z,18.10
2022-12-18T16:44:50.141Z,16.23
2022-12-18T16:47:21.658Z,18.45
2022-12-18T16:49:52.848Z,17.42
2022-12-18T16:52:21.340Z,16.65
2022-12-18T16:54:49.065Z,16.80
2022-12-18T16:57:19.444Z,17.70
2022-12-18T16:59:48.842Z,17.70
2022-12-18T17:02:19.224Z,17.90
2022-12-18T17:04:56.242Z,19.13
2022-12-18T17:07:25.373Z,18.55
2022-12-18T17:09:56.398Z,17.85
2022-12-18T17:12:27.273Z,19.00
2022-12-18T17:14:54.662Z,18.23
2022-12-18T17:17:23.308Z,18.92
2022-12-18T17:19:58.976Z,17.95
2022-12-18T17:22:26.571Z,18.83
2022-12-18T17:24:53.865Z,18.50
2022-12-18T17:27:21.274Z,17.75
2022-12-18T17:29:51.832Z,19.65
2022-12-18T17:32:19.373Z,17.65
2022-12-18T17:34:47.017Z,19.48
2022-12-18T17:37:15.437Z,19.13
2022-12-18T17:39:43.295Z,20.20
2022-12-18T17:42:14.911Z,19.42
2022-12-18T17:44:43.876Z,18.65
2022-12-18T17:47:13.177Z,18.27
2022-12-18T17:49:41.311Z,18.85
2022-12-18T17:52:09.052Z,18.42
2022-12-18T17:54:39.536Z,19.60
2022-12-18T17:57:07.621Z,20.38
2022-12-18T17:59:35.215Z,18.38
2022-12-18T18:02:02.844Z,20.63
2022-12-18T18:04:30.345Z,20.70
2022-12-18T18:06:57.799Z,19.90
2022-12-18T18:09:25.365Z,19.30
2022-12-18T18:12:10.978Z,20.20
2022-12-18T18:14:38.269Z,19.65
2022-12-18T18:17:06.111Z,19.58
2022-12-18T18:19:34.075Z,19.70
2022-12-18T18:22:01.724Z,20.42
2022-12-18T18:24:30.613Z,19.88
2022-12-18T18:26:59.843Z,19.63
2022-12-18T18:29:30.295Z,20.77
2022-12-18T18:31:58.915Z,20.20
2022-12-18T18:34:31.802Z,20.77
2022-12-18T18:37:01.556Z,20.40
2022-12-18T18:39:29.387Z,20.67
2022-12-18T18:41:56.840Z,20.20
2022-12-18T18:44:26.191Z,20.20
2022-12-18T18:46:55.754Z,20.75
2022-12-18T18:49:26.885Z,21.83
2022-12-18T18:51:55.426Z,20.92
2022-12-18T18:54:23.058Z,20.13
2022-12-18T18:59:38.563Z,20.52
2022-12-18T19:02:06.457Z,20.13
2022-12-18T19:04:34.309Z,21.17
2022-12-18T19:07:01.979Z,20.50
2022-12-18T19:09:29.572Z,20.23
2022-12-18T19:12:15.439Z,20.65
2022-12-18T19:14:43.343Z,22.67
2022-12-18T19:17:10.976Z,22.13
2022-12-18T19:19:39.973Z,22.30
2022-12-18T19:22:07.732Z,21.30
2022-12-18T19:24:36.287Z,22.00
2022-12-18T19:27:04.125Z,22.20
2022-12-18T19:29:31.471Z,21.27
2022-12-18T19:31:59.050Z,21.65
2022-12-18T19:34:26.819Z,21.95
2022-12-18T19:36:59.419Z,22.83
2022-12-18T19:39:28.161Z,21.75
2022-12-18T19:41:55.522Z,20.77
2022-12-18T19:44:22.850Z,20.85
2022-12-18T19:46:51.726Z,22.83
2022-12-18T19:49:22.551Z,22.17
2022-12-18T19:51:50.693Z,22.23
2022-12-18T19:54:18.219Z,21.80
2022-12-18T19:56:46.081Z,21.98
2022-12-18T19:59:13.814Z,21.65
2022-12-18T20:01:41.990Z,22.05
2022-12-18T20:04:09.583Z,21.25
2022-12-18T20:06:50.424Z,22.38
2022-12-18T20:09:18.371Z,23.15
2022-12-18T20:11:47.036Z,20.98
2022-12-18T20:14:16.902Z,21.63
2022-12-18T20:16:52.117Z,23.33
2022-12-18T20:19:20.725Z,22.33
2022-12-18T20:21:48.703Z,22.75
2022-12-18T20:24:16.206Z,22.55
2022-12-18T20:26:43.877Z,22.15
2022-12-18T20:29:11.647Z,23.23
2022-12-18T20:31:39.055Z,24.27
2022-12-18T20:34:07.134Z,21.95
2022-12-18T20:36:36.394Z,21.83
2022-12-18T20:39:07.463Z,21.58
2022-12-18T20:41:38.187Z,23.40
2022-12-18T20:44:22.305Z,23.45
2022-12-18T20:46:57.945Z,22.55
2022-12-18T20:49:26.942Z,22.05
2022-12-18T20:51:56.823Z,24.40
2022-12-18T20:54:28.900Z,22.83
2022-12-18T20:56:57.495Z,22.63
2022-12-18T20:59:25.949Z,22.15
2022-12-18T21:01:56.389Z,23.58
2022-12-18T21:04:24.625Z,23.48
2022-12-18T21:07:00.549Z,21.13
2022-12-18T21:09:37.667Z,22.83
2022-12-18T21:12:30.234Z,23.58
2022-12-18T21:15:04.561Z,22.00
2022-12-18T21:17:33.103Z,20.95
2022-12-18T21:20:06.840Z,23.70
2022-12-18T21:22:38.394Z,22.38
2022-12-18T21:25:06.001Z,23.23
2022-12-18T21:27:33.556Z,22.20
2022-12-18T21:30:00.998Z,22.35
2022-12-18T21:32:32.026Z,22.08
2022-12-18T21:35:02.412Z,24.30
2022-12-18T21:37:29.789Z,21.58
2022-12-18T21:39:57.045Z,22.27
2022-12-18T21:42:43.054Z,22.52
2022-12-18T21:45:12.092Z,22.88
2022-12-18T21:47:39.690Z,24.17
2022-12-18T21:50:07.613Z,24.05
2022-12-18T21:52:34.856Z,25.33
2022-12-18T21:55:09.099Z,25.58
2022-12-18T21:57:38.342Z,24.40
2022-12-18T22:00:07.497Z,23.73
2022-12-18T22:02:41.149Z,23.73
2022-12-18T22:05:09.038Z,23.17
2022-12-18T22:07:36.327Z,24.73
2022-12-18T22:10:03.906Z,23.55
2022-12-18T22:12:43.660Z,24.00
2022-12-18T22:15:21.020Z,24.25
2022-12-18T22:17:50.575Z,25.23
2022-12-18T22:20:19.892Z,24.45
2022-12-18T22:22:48.619Z,24.25
2022-12-18T22:25:16.071Z,25.23
2022-12-18T22:28:03.895Z,23.90
2022-12-18T22:30:31.113Z,23.55
2022-12-18T22:32:58.617Z,23.65
2022-12-18T22:35:25.857Z,24.83
2022-12-18T22:37:53.318Z,26.25
2022-12-18T22:40:26.742Z,24.40
2022-12-18T22:42:55.850Z,24.50
2022-12-18T22:45:24.190Z,24.65
2022-12-18T22:47:51.697Z,24.95
2022-12-18T22:50:19.024Z,25.25
2022-12-18T22:52:46.301Z,23.45
2022-12-18T22:55:13.637Z,24.55
2022-12-18T22:57:43.754Z,25.42
2022-12-18T23:00:21.001Z,25.23
2022-12-18T23:03:00.427Z,26.00
2022-12-18T23:05:30.025Z,25.55
2022-12-18T23:07:57.644Z,25.13
2022-12-18T23:10:25.122Z,25.85
2022-12-18T23:12:52.496Z,28.05
2022-12-18T23:15:27.670Z,25.35
2022-12-18T23:17:57.736Z,24.65
2022-12-18T23:20:26.106Z,26.35
2022-12-18T23:22:54.121Z,26.65
2022-12-18T23:25:21.413Z,27.35
2022-12-18T23:27:48.651Z,26.15
2022-12-18T23:30:15.983Z,25.92
2022-12-18T23:32:43.330Z,26.77
2022-12-18T23:35:10.625Z,26.38
2022-12-18T23:40:29.359Z,27.90
2022-12-18T23:42:56.728Z,26.55
2022-12-18T23:45:24.130Z,26.85
2022-12-18T23:47:51.524Z,26.70
2022-12-18T23:50:18.932Z,27.08
2022-12-18T23:52:49.465Z,28.05
2022-12-18T23:55:16.765Z,26.63
2022-12-18T23:57:44.038Z,24.95
